createdAt,value
2022-08-22T00:01:17.572Z,2.47
2022-08-22T00:03:09.131Z,2.50
2022-08-22T00:03:59.643Z,2.45
2022-08-22T00:06:55.188Z,2.35
2022-08-22T00:09:40.661Z,2.28
2022-08-22T00:12:10.137Z,2.50
2022-08-22T00:15:42.049Z,2.30
2022-08-22T00:18:08.163Z,2.30
2022-08-22T00:20:44.427Z,2.15
2022-08-22T00:23:22.988Z,2.45
2022-08-22T00:26:27.233Z,2.95
2022-08-22T00:29:01.286Z,2.47
2022-08-22T00:31:33.989Z,2.15
2022-08-22T00:34:12.011Z,2.20
2022-08-22T00:37:02.305Z,2.17
2022-08-22T00:40:03.631Z,2.42
2022-08-22T00:42:58.063Z,2.42
2022-08-22T00:45:59.855Z,2.33
2022-08-22T00:48:52.500Z,2.63
2022-08-22T00:51:51.003Z,2.10
2022-08-22T00:55:00.549Z,2.30
2022-08-22T00:58:01.087Z,2.90
2022-08-22T01:00:36.416Z,2.78
2022-08-22T01:03:46.889Z,3.05
2022-08-22T01:06:37.190Z,2.60
2022-08-22T01:09:41.567Z,2.30
2022-08-22T01:12:15.533Z,2.50
2022-08-22T01:14:51.862Z,2.58
2022-08-22T01:17:51.364Z,2.20
2022-08-22T01:20:36.035Z,2.33
2022-08-22T01:23:14.701Z,2.05
2022-08-22T01:26:09.882Z,2.30
2022-08-22T01:29:12.663Z,2.28
2022-08-22T01:32:08.631Z,2.15
2022-08-22T01:34:38.035Z,2.50
2022-08-22T01:37:45.549Z,2.03
2022-08-22T01:40:30.934Z,2.30
2022-08-22T01:43:01.977Z,2.50
2022-08-22T01:46:13.146Z,2.33
2022-08-22T01:49:13.398Z,2.50
2022-08-22T01:52:07.522Z,2.38
2022-08-22T01:55:01.368Z,2.65
2022-08-22T01:57:28.579Z,2.22
2022-08-22T01:59:59.128Z,2.70
2022-08-22T02:02:52.039Z,2.25
2022-08-22T02:05:46.916Z,2.53
2022-08-22T02:08:36.459Z,2.42
2022-08-22T02:11:06.971Z,2.42
2022-08-22T02:16:31.871Z,2.25
2022-08-22T02:19:10.895Z,1.92
2022-08-22T02:22:13.623Z,2.30
2022-08-22T02:24:53.862Z,2.33
2022-08-22T02:27:39.170Z,2.60
2022-08-22T02:30:14.267Z,2.40
2022-08-22T02:32:40.879Z,2.28
2022-08-22T02:35:10.324Z,3.00
2022-08-22T02:38:07.448Z,2.25
2022-08-22T02:40:54.252Z,2.65
2022-08-22T02:43:42.238Z,3.00
2022-08-22T02:46:41.828Z,2.75
2022-08-22T02:49:36.272Z,2.40
2022-08-22T02:52:26.275Z,2.25
2022-08-22T02:55:02.164Z,2.40
2022-08-22T02:57:40.274Z,2.72
2022-08-22T03:00:31.658Z,2.60
2022-08-22T03:02:59.359Z,2.45
2022-08-22T03:05:37.781Z,2.30
2022-08-22T03:08:13.279Z,2.60
2022-08-22T03:10:48.990Z,2.45
2022-08-22T03:13:30.366Z,2.67
2022-08-22T03:16:10.529Z,2.67
2022-08-22T03:19:04.226Z,2.80
2022-08-22T03:21:34.212Z,3.05
2022-08-22T03:24:27.991Z,2.60
2022-08-22T03:27:31.354Z,2.53
2022-08-22T03:30:10.647Z,2.67
2022-08-22T03:32:50.690Z,2.60
2022-08-22T03:35:29.463Z,2.80
2022-08-22T03:38:16.884Z,2.25
2022-08-22T03:40:52.905Z,2.35
2022-08-22T03:43:50.138Z,2.33
2022-08-22T03:46:51.001Z,2.65
2022-08-22T03:49:31.358Z,2.20
2022-08-22T03:52:22.420Z,2.95
2022-08-22T03:55:26.475Z,2.95
2022-08-22T03:58:28.183Z,3.03
2022-08-22T04:01:15.456Z,2.67
2022-08-22T04:04:06.920Z,2.85
2022-08-22T04:06:56.299Z,2.67
2022-08-22T04:09:35.367Z,2.80
2022-08-22T04:12:34.608Z,2.50
2022-08-22T04:15:26.160Z,3.05
2022-08-22T04:18:17.655Z,2.78
2022-08-22T04:21:13.903Z,2.97
2022-08-22T04:24:01.685Z,2.70
2022-08-22T04:26:43.640Z,2.88
2022-08-22T04:29:22.113Z,2.25
2022-08-22T04:32:03.021Z,2.70
2022-08-22T04:34:37.554Z,2.72
2022-08-22T04:37:34.735Z,2.60
2022-08-22T04:40:16.775Z,2.78
2022-08-22T04:42:53.936Z,2.60
2022-08-22T04:45:36.676Z,2.70
2022-08-22T04:48:26.921Z,2.40
2022-08-22T04:51:25.955Z,2.58
2022-08-22T04:54:17.211Z,3.10
2022-08-22T04:57:08.580Z,2.70
2022-08-22T04:59:35.948Z,2.75
2022-08-22T05:02:08.447Z,3.05
2022-08-22T05:04:45.721Z,2.70
2022-08-22T05:07:25.997Z,2.60
2022-08-22T05:10:09.275Z,2.40
2022-08-22T05:12:49.485Z,2.47
2022-08-22T05:15:34.447Z,2.58
2022-08-22T05:18:07.475Z,2.85
2022-08-22T05:20:36.452Z,2.33
2022-08-22T05:23:17.053Z,2.45
2022-08-22T05:25:46.596Z,2.40
2022-08-22T05:28:32.108Z,3.05
2022-08-22T05:30:59.933Z,2.80
2022-08-22T05:33:47.898Z,2.72
2022-08-22T05:36:23.467Z,2.55
2022-08-22T05:39:02.411Z,2.20
2022-08-22T05:41:36.822Z,2.15
2022-08-22T05:44:04.507Z,2.55
2022-08-22T05:46:42.286Z,2.85
2022-08-22T05:49:19.052Z,2.88
2022-08-22T05:52:10.412Z,2.83
2022-08-22T05:54:49.139Z,2.80
2022-08-22T05:57:38.681Z,2.15
2022-08-22T06:00:12.758Z,2.47
2022-08-22T06:02:59.157Z,2.40
2022-08-22T06:05:29.185Z,2.58
2022-08-22T06:08:03.300Z,2.10
2022-08-22T06:10:48.352Z,2.88
2022-08-22T06:13:30.005Z,2.40
2022-08-22T06:16:16.921Z,3.20
2022-08-22T06:18:45.776Z,3.28
2022-08-22T06:21:39.562Z,2.97
2022-08-22T06:24:13.348Z,3.42
2022-08-22T06:26:48.804Z,3.05
2022-08-22T06:29:28.401Z,2.70
2022-08-22T06:31:56.052Z,3.10
2022-08-22T06:34:32.556Z,3.33
2022-08-22T06:37:03.908Z,2.85
2022-08-22T06:39:41.412Z,3.30
2022-08-22T06:42:19.188Z,3.00
2022-08-22T06:44:51.623Z,3.03
2022-08-22T06:47:36.132Z,3.25
2022-08-22T06:50:13.620Z,3.00
2022-08-22T06:53:18.388Z,3.03
2022-08-22T06:55:52.197Z,3.65
2022-08-22T06:58:27.023Z,2.95
2022-08-22T07:01:11.800Z,2.83
2022-08-22T07:04:00.672Z,3.28
2022-08-22T07:06:35.248Z,3.65
2022-08-22T07:09:06.909Z,2.97
2022-08-22T07:11:39.461Z,3.30
2022-08-22T07:14:11.264Z,3.33
2022-08-22T07:16:43.188Z,3.08
2022-08-22T07:19:22.246Z,3.30
2022-08-22T07:21:51.987Z,2.92
2022-08-22T07:24:25.562Z,3.45
2022-08-22T07:27:05.707Z,2.95
2022-08-22T07:30:02.065Z,3.03
2022-08-22T07:32:56.019Z,2.90
2022-08-22T07:35:44.144Z,2.58
2022-08-22T07:38:37.442Z,3.50
2022-08-22T07:41:14.040Z,2.97
2022-08-22T07:43:46.296Z,2.90
2022-08-22T07:46:30.920Z,3.65
2022-08-22T07:49:26.559Z,3.75
2022-08-22T07:51:58.758Z,3.70
2022-08-22T07:54:47.271Z,3.13
2022-08-22T07:57:16.018Z,3.40
2022-08-22T07:59:55.023Z,3.17
2022-08-22T08:02:22.807Z,2.90
2022-08-22T08:04:52.815Z,2.45
2022-08-22T08:07:23.751Z,2.75
2022-08-22T08:09:59.494Z,3.55
2022-08-22T08:12:34.792Z,3.20
2022-08-22T08:15:04.518Z,3.42
2022-08-22T08:17:34.243Z,3.10
2022-08-22T08:20:08.059Z,3.60
2022-08-22T08:22:37.261Z,3.60
2022-08-22T08:25:06.773Z,2.90
2022-08-22T08:27:57.057Z,3.47
2022-08-22T08:30:35.530Z,2.97
2022-08-22T08:33:24.371Z,2.92
2022-08-22T08:36:04.149Z,2.92
2022-08-22T08:39:12.365Z,3.70
2022-08-22T08:41:57.288Z,3.03
2022-08-22T08:44:55.178Z,3.13
2022-08-22T08:47:34.227Z,3.28
2022-08-22T08:50:34.095Z,3.05
2022-08-22T08:53:37.835Z,3.22
2022-08-22T08:56:37.206Z,2.95
2022-08-22T08:59:25.843Z,3.58
2022-08-22T09:02:08.492Z,3.35
2022-08-22T09:05:15.701Z,3.60
2022-08-22T09:07:59.213Z,3.20
2022-08-22T09:11:00.840Z,3.35
2022-08-22T09:13:44.440Z,3.00
2022-08-22T09:16:22.532Z,2.47
2022-08-22T09:19:02.024Z,3.13
2022-08-22T09:22:15.602Z,2.83
2022-08-22T09:25:14.641Z,3.03
2022-08-22T09:28:03.610Z,2.90
2022-08-22T09:30:59.793Z,2.83
2022-08-22T09:33:53.156Z,2.83
2022-08-22T09:36:59.929Z,2.53
2022-08-22T09:39:37.985Z,2.50
2022-08-22T09:42:18.327Z,2.85
2022-08-22T09:45:20.484Z,2.55
2022-08-22T09:48:06.388Z,2.70
2022-08-22T09:50:46.671Z,2.53
2022-08-22T09:53:32.034Z,2.75
2022-08-22T09:56:21.695Z,2.20
2022-08-22T09:59:04.666Z,2.30
2022-08-22T10:02:01.236Z,2.35
2022-08-22T10:04:44.512Z,2.53
2022-08-22T10:07:23.655Z,2.80
2022-08-22T10:10:03.863Z,2.60
2022-08-22T10:12:36.549Z,1.88
2022-08-22T10:15:16.655Z,2.40
2022-08-22T10:18:12.335Z,2.33
2022-08-22T10:21:10.588Z,2.08
2022-08-22T10:23:53.789Z,2.15
2022-08-22T10:26:38.656Z,2.30
2022-08-22T10:29:37.889Z,2.28
2022-08-22T10:32:16.300Z,2.55
2022-08-22T10:34:47.890Z,2.05
2022-08-22T10:37:39.711Z,2.20
2022-08-22T10:40:14.204Z,2.17
2022-08-22T10:43:03.485Z,2.42
2022-08-22T10:45:46.623Z,1.70
2022-08-22T10:48:35.210Z,1.75
2022-08-22T10:51:36.658Z,2.05
2022-08-22T10:54:20.039Z,1.80
2022-08-22T10:57:29.520Z,2.20
2022-08-22T11:00:16.033Z,2.15
2022-08-22T11:03:10.668Z,1.80
2022-08-22T11:05:50.011Z,1.80
2022-08-22T11:08:36.200Z,2.05
2022-08-22T11:11:06.577Z,1.95
2022-08-22T11:13:57.822Z,2.08
2022-08-22T11:16:48.942Z,1.88
2022-08-22T11:19:31.858Z,1.85
2022-08-22T11:22:14.479Z,1.80
2022-08-22T11:25:29.299Z,1.75
2022-08-22T11:28:20.128Z,1.90
2022-08-22T11:31:03.690Z,1.60
2022-08-22T11:33:47.259Z,1.92
2022-08-22T11:36:42.161Z,1.92
2022-08-22T11:39:19.153Z,1.80
2022-08-22T11:42:12.495Z,1.73
2022-08-22T11:44:50.037Z,2.00
2022-08-22T11:47:27.269Z,1.80
2022-08-22T11:49:58.683Z,1.90
2022-08-22T11:52:34.385Z,1.98
2022-08-22T11:55:05.663Z,1.98
2022-08-22T11:57:54.902Z,2.10
2022-08-22T12:00:23.028Z,1.92
2022-08-22T12:03:16.260Z,2.35
2022-08-22T12:06:36.351Z,1.83
2022-08-22T12:09:29.808Z,2.00
2022-08-22T12:12:20.392Z,2.15
2022-08-22T12:15:03.477Z,1.70
2022-08-22T12:17:55.714Z,1.95
2022-08-22T12:20:46.390Z,1.60
2022-08-22T12:23:43.655Z,1.70
2022-08-22T12:26:48.106Z,1.90
2022-08-22T12:29:33.808Z,1.83
2022-08-22T12:32:45.783Z,1.95
2022-08-22T12:35:38.161Z,1.80
2022-08-22T12:38:26.722Z,1.90
2022-08-22T12:41:27.666Z,2.00
2022-08-22T12:46:36.229Z,1.75
2022-08-22T12:49:33.813Z,1.80
2022-08-22T12:52:08.407Z,1.58
2022-08-22T12:54:50.068Z,1.65
2022-08-22T12:57:39.019Z,1.60
2022-08-22T13:00:40.148Z,1.57
2022-08-22T13:03:23.723Z,1.77
2022-08-22T13:05:57.035Z,1.45
2022-08-22T13:08:42.348Z,1.50
2022-08-22T13:11:22.727Z,1.20
2022-08-22T13:14:00.093Z,1.83
2022-08-22T13:16:37.524Z,1.30
2022-08-22T13:19:13.449Z,1.55
2022-08-22T13:21:48.240Z,1.48
2022-08-22T13:24:22.769Z,1.40
2022-08-22T13:27:15.076Z,2.42
2022-08-22T13:29:47.963Z,2.05
2022-08-22T13:32:28.633Z,1.65
2022-08-22T13:34:57.280Z,1.50
2022-08-22T13:37:44.310Z,1.60
2022-08-22T13:40:21.236Z,2.10
2022-08-22T13:42:54.226Z,1.40
2022-08-22T13:45:25.597Z,1.70
2022-08-22T13:47:59.217Z,1.50
2022-08-22T13:50:52.961Z,1.48
2022-08-22T13:53:32.496Z,1.60
2022-08-22T13:56:15.440Z,1.35
2022-08-22T13:58:51.639Z,1.40
2022-08-22T14:01:25.209Z,1.52
2022-08-22T14:04:17.528Z,1.60
2022-08-22T14:07:24.111Z,1.63
2022-08-22T14:10:02.559Z,1.65
2022-08-22T14:12:50.044Z,1.50
2022-08-22T14:15:25.802Z,1.60
2022-08-22T14:17:56.888Z,1.30
2022-08-22T14:20:28.524Z,1.60
2022-08-22T14:23:09.106Z,1.45
2022-08-22T14:25:42.115Z,1.40
2022-08-22T14:28:27.323Z,1.60
2022-08-22T14:31:13.462Z,1.52
2022-08-22T14:33:53.473Z,1.38
2022-08-22T14:36:44.424Z,1.35
2022-08-22T14:39:42.955Z,1.42
2022-08-22T14:42:19.021Z,1.20
2022-08-22T14:44:58.193Z,1.20
2022-08-22T14:48:14.484Z,1.42
2022-08-22T14:50:46.254Z,1.38
2022-08-22T14:53:25.123Z,1.50
2022-08-22T14:56:04.085Z,1.40
2022-08-22T14:58:39.407Z,1.40
2022-08-22T15:01:15.755Z,1.40
2022-08-22T15:03:51.253Z,1.30
2022-08-22T15:06:38.780Z,1.27
2022-08-22T15:09:30.943Z,1.20
2022-08-22T15:11:58.045Z,1.25
2022-08-22T15:14:37.541Z,1.10
2022-08-22T15:17:08.727Z,1.30
2022-08-22T15:19:46.981Z,1.58
2022-08-22T15:22:27.560Z,1.50
2022-08-22T15:25:06.819Z,1.30
2022-08-22T15:27:48.838Z,1.35
2022-08-22T15:30:18.723Z,1.40
2022-08-22T15:32:48.879Z,1.20
2022-08-22T15:35:29.992Z,1.33
2022-08-22T15:38:04.276Z,1.70
2022-08-22T15:40:40.757Z,1.40
2022-08-22T15:43:22.106Z,1.38
2022-08-22T15:46:07.048Z,1.30
2022-08-22T15:48:38.986Z,1.55
2022-08-22T15:53:45.664Z,1.20
2022-08-22T15:56:12.376Z,1.55
2022-08-22T15:58:48.820Z,1.40
2022-08-22T16:01:22.337Z,1.08
2022-08-22T16:03:58.361Z,1.50
2022-08-22T16:06:48.224Z,1.38
2022-08-22T16:09:52.328Z,1.77
2022-08-22T16:12:43.782Z,1.38
2022-08-22T16:15:55.930Z,1.30
2022-08-22T16:18:36.972Z,1.88
2022-08-22T16:21:05.473Z,1.45
2022-08-22T16:24:10.619Z,1.30
2022-08-22T16:26:40.812Z,1.75
2022-08-22T16:29:13.481Z,1.60
2022-08-22T16:31:44.067Z,1.50
2022-08-22T16:34:16.793Z,1.30
2022-08-22T16:37:14.316Z,1.27
2022-08-22T16:39:47.033Z,1.30
2022-08-22T16:42:22.120Z,1.42
2022-08-22T16:44:49.956Z,1.10
2022-08-22T16:47:41.269Z,1.60
2022-08-22T16:50:23.245Z,1.30
2022-08-22T16:53:10.627Z,1.60
2022-08-22T17:00:42.559Z,1.40
2022-08-22T17:04:03.920Z,1.60
2022-08-22T17:07:24.744Z,1.92
2022-08-22T17:10:45.467Z,1.67
2022-08-22T17:14:07.136Z,2.47
2022-08-22T17:16:53.404Z,1.92
2022-08-22T17:19:29.668Z,1.75
2022-08-22T17:22:04.507Z,1.30
2022-08-22T17:24:32.374Z,1.65
2022-08-22T17:27:25.415Z,1.55
2022-08-22T17:30:00.692Z,1.52
2022-08-22T17:32:33.599Z,1.73
2022-08-22T17:35:12.766Z,1.80
2022-08-22T17:38:18.499Z,1.48
2022-08-22T17:41:13.549Z,2.30
2022-08-22T17:43:49.250Z,1.42
2022-08-22T17:46:32.861Z,1.50
2022-08-22T17:49:12.972Z,1.85
2022-08-22T17:52:01.533Z,1.67
2022-08-22T17:54:43.209Z,1.70
2022-08-22T17:57:38.035Z,1.73
2022-08-22T18:00:13.896Z,1.77
2022-08-22T18:02:50.655Z,2.05
2022-08-22T18:05:20.527Z,1.90
2022-08-22T18:10:35.805Z,1.88
2022-08-22T18:13:09.648Z,1.90
2022-08-22T18:15:47.567Z,1.67
2022-08-22T18:18:47.293Z,1.52
2022-08-22T18:23:59.518Z,1.70
2022-08-22T18:26:36.701Z,2.00
2022-08-22T18:29:12.841Z,1.73
2022-08-22T18:32:20.431Z,1.60
2022-08-22T18:35:03.445Z,1.77
2022-08-22T18:37:30.212Z,2.00
2022-08-22T18:40:04.794Z,1.65
2022-08-22T18:43:01.600Z,1.70
2022-08-22T18:45:46.535Z,1.63
2022-08-22T18:48:24.867Z,1.45
2022-08-22T18:50:51.840Z,1.95
2022-08-22T18:53:43.380Z,2.08
2022-08-22T18:56:21.572Z,1.65
2022-08-22T18:59:05.356Z,2.20
2022-08-22T19:01:44.762Z,2.20
2022-08-22T19:04:25.792Z,1.98
2022-08-22T19:07:16.549Z,1.85
2022-08-22T19:10:34.638Z,2.00
2022-08-22T19:13:35.325Z,1.88
2022-08-22T19:16:11.132Z,1.50
2022-08-22T19:18:51.418Z,1.60
2022-08-22T19:21:53.182Z,1.42
2022-08-22T19:24:19.679Z,1.80
2022-08-22T19:26:49.067Z,2.08
2022-08-22T19:29:18.402Z,1.77
2022-08-22T19:31:53.097Z,1.90
2022-08-22T19:34:25.591Z,1.85
2022-08-22T19:37:32.833Z,1.50
2022-08-22T19:40:02.686Z,1.95
2022-08-22T19:42:34.696Z,1.70
2022-08-22T19:45:03.558Z,1.88
2022-08-22T19:47:37.999Z,1.65
2022-08-22T19:50:16.744Z,1.80
2022-08-22T19:55:51.126Z,2.35
2022-08-22T19:58:39.403Z,1.63
2022-08-22T20:01:25.009Z,1.48
2022-08-22T20:04:03.860Z,1.60
2022-08-22T20:06:51.656Z,1.80
2022-08-22T20:09:38.496Z,1.70
2022-08-22T20:12:29.584Z,1.70
2022-08-22T20:17:23.710Z,1.60
2022-08-22T20:20:28.022Z,1.58
2022-08-22T20:23:03.790Z,1.85
2022-08-22T20:26:03.124Z,1.45
2022-08-22T20:28:37.232Z,1.42
2022-08-22T20:31:10.474Z,1.30
2022-08-22T20:33:42.028Z,1.70
2022-08-22T20:36:27.373Z,1.30
2022-08-22T20:39:00.166Z,2.08
2022-08-22T20:41:34.026Z,1.52
2022-08-22T20:44:13.620Z,1.30
2022-08-22T20:46:46.383Z,1.25
2022-08-22T20:49:20.871Z,1.48
2022-08-22T20:52:08.748Z,1.98
2022-08-22T20:54:40.331Z,1.60
2022-08-22T20:57:19.231Z,1.33
2022-08-22T21:00:06.621Z,1.60
2022-08-22T21:02:43.381Z,1.40
2022-08-22T21:05:13.333Z,1.52
2022-08-22T21:07:42.885Z,1.35
2022-08-22T21:10:39.731Z,1.90
2022-08-22T21:13:17.236Z,1.58
2022-08-22T21:15:47.999Z,1.20
2022-08-22T21:18:25.588Z,1.23
2022-08-22T21:20:52.341Z,1.50
2022-08-22T21:23:19.675Z,1.55
2022-08-22T21:25:57.891Z,1.60
2022-08-22T21:28:38.513Z,1.35
2022-08-22T21:31:14.788Z,1.40
2022-08-22T21:33:47.419Z,1.52
2022-08-22T21:36:17.902Z,1.75
2022-08-22T21:39:01.798Z,1.52
2022-08-22T21:41:40.902Z,1.63
2022-08-22T21:44:29.005Z,1.73
2022-08-22T21:46:56.945Z,1.33
2022-08-22T21:49:29.941Z,1.50
2022-08-22T21:51:56.578Z,1.38
2022-08-22T21:54:27.794Z,1.30
2022-08-22T21:57:17.176Z,1.40
2022-08-22T21:59:51.526Z,1.50
2022-08-22T22:02:36.514Z,1.67
2022-08-22T22:05:08.111Z,1.50
2022-08-22T22:07:38.101Z,1.48
2022-08-22T22:10:08.512Z,1.60
2022-08-22T22:12:35.119Z,1.55
2022-08-22T22:15:03.126Z,1.00
2022-08-22T22:17:29.602Z,1.45
2022-08-22T22:19:56.900Z,1.40
2022-08-22T22:22:24.176Z,1.42
2022-08-22T22:24:50.651Z,1.45
2022-08-22T22:27:17.301Z,1.15
2022-08-22T22:29:44.179Z,1.17
2022-08-22T22:32:10.975Z,1.95
2022-08-22T22:34:39.022Z,1.35
2022-08-22T22:37:11.756Z,1.25
2022-08-22T22:39:38.774Z,1.20
2022-08-22T22:42:05.670Z,1.20
2022-08-22T22:44:32.946Z,1.35
2022-08-22T22:47:02.472Z,1.23
2022-08-22T22:49:30.037Z,1.20
2022-08-22T22:52:00.569Z,1.30
2022-08-22T22:54:27.555Z,1.40
2022-08-22T22:56:56.832Z,1.42
2022-08-22T22:59:25.816Z,1.45
2022-08-22T23:02:01.714Z,1.80
2022-08-22T23:04:30.463Z,1.48
2022-08-22T23:06:57.116Z,1.40
2022-08-22T23:09:25.008Z,1.20
2022-08-22T23:12:06.673Z,1.45
2022-08-22T23:14:34.439Z,1.38
2022-08-22T23:17:02.019Z,1.10
2022-08-22T23:19:29.277Z,1.45
2022-08-22T23:21:58.423Z,1.30
2022-08-22T23:24:27.499Z,1.50
2022-08-22T23:26:54.219Z,1.20
2022-08-22T23:29:20.758Z,1.33
2022-08-22T23:31:57.417Z,1.42
2022-08-22T23:34:28.142Z,1.40
2022-08-22T23:39:24.580Z,1.40
2022-08-22T23:41:51.641Z,1.20
2022-08-22T23:44:21.023Z,1.45
2022-08-22T23:46:48.638Z,1.30
2022-08-22T23:49:16.241Z,1.60
2022-08-22T23:51:44.340Z,1.30
2022-08-22T23:54:12.066Z,1.48
2022-08-22T23:56:45.743Z,1.35
2022-08-22T23:59:16.024Z,1.55
